Home > Products > Valid Products > MTR

000
SAUS43 KILX 021225
MTRPIA
SPECI KPIA 021224Z 18005KT 10SM SCT007 19/17 A2984 RMK AO2 T01940172





000
SAUS43 KILX 021208
MTRPIA
SPECI KPIA 021206Z 18005KT 10SM BKN008 19/17 A2983 RMK AO2 T01940172





000
SAUS43 KILX 021155
MTRPIA
METAR KPIA 021154Z 19005KT 10SM SCT008 19/17 A2983 RMK AO2 SLP099
60011 70029 T01940172 10211 20194 51019





000
SAUS43 KILX 021055
MTRPIA
METAR KPIA 021054Z 19009KT 10SM SCT007 OVC100 20/18 A2983 RMK AO2
RAE11 SLP096 P0000 T02000178





000
SAUS43 KILX 021052
MTRPIA
SPECI KPIA 021051Z 19009KT 10SM FEW007 OVC100 20/18 A2983 RMK AO2
RAE11 P0000





000
SAUS43 KILX 020955
MTRPIA
METAR KPIA 020954Z 16013KT 7SM -RA BKN100 BKN120 20/17 A2978 RMK AO2
SLP079 P0011 T02000172





000
SAUS43 KILX 020855
MTRPIA
METAR KPIA 020854Z AUTO 19007KT 10SM -RA SCT090 SCT110 19/17 A2985
RMK AO2 RAB48 SLP103 P0000 60000 T01940172 53004 TSNO





000
SAUS43 KILX 020755
MTRPIA
METAR KPIA 020754Z AUTO 22003KT 8SM CLR 19/17 A2985 RMK AO2 SLP104
T01940172 TSNO





000
SAUS43 KILX 020656
MTRPIA
METAR KPIA 020654Z 17010KT 10SM CLR 21/17 A2983 RMK AO2 SLP095
T02060172





000
SAUS43 KILX 020555
MTRPIA
METAR KPIA 020554Z 19011G20KT 10SM FEW012 21/18 A2984 RMK AO2 SLP098
60012 T02110178 10222 20206 402610117 56002





000
SAUS43 KILX 020455
MTRPIA
METAR KPIA 020454Z 18012KT 5SM HZ CLR 21/18 A2985 RMK AO2 SLP103
T02110178





000
SAUS43 KILX 020355
MTRPIA
METAR KPIA 020354Z 16009KT 10SM CLR 22/18 A2983 RMK AO2 SLP097
T02220178





000
SAUS43 KILX 020255
MTRPIA
METAR KPIA 020254Z 16010KT 9SM CLR 22/18 A2984 RMK AO2 RAE05 SLP103
P0000 60012 T02170178 58004





000
SAUS43 KILX 020155
MTRPIA
METAR KPIA 020154Z 16011KT 6SM -RA BKN110 22/18 A2985 RMK AO2 SLP107
P0004 T02170178





000
SAUS43 KILX 020055
MTRPIA
METAR KPIA 020054Z 18007KT 5SM -RA OVC110 21/18 A2986 RMK AO2 SLP109
P0008 T02060178





000
SAUS43 KILX 012355
MTRPIA
METAR KPIA 012354Z 23006KT 4SM RA OVC110 21/18 A2986 RMK AO2 SLP108
P0004 60006 T02110178 10261 20211 50005





000
SAUS43 KILX 012256
MTRPIA
METAR KPIA 012254Z 27004KT 5SM -RA FEW047 SCT120 22/18 A2986 RMK AO2
SLP109 P0001 T02170183





000
SAUS43 KILX 012155
MTRPIA
METAR KPIA 012154Z 24005KT 9SM -RA FEW060 SCT090 BKN110 23/17 A2984
RMK AO2 RAB2058 SLP104 P0001 T02280172





000
SAUS43 KILX 012055
MTRPIA
METAR KPIA 012054Z 23004KT 10SM FEW042 SCT055 BKN110 26/16 A2984 RMK
AO2 RAB24E34 SLP101 P0000 60000 T02560161 56022





000
SAUS43 KILX 011955
MTRPIA
METAR KPIA 011954Z 13005KT 10SM CLR 26/16 A2985 RMK AO2 SLP105
T02610156





000
SAUS43 KILX 011855
MTRPIA
METAR KPIA 011854Z AUTO VRB05KT 10SM CLR 26/15 A2986 RMK AO2 SLP108
T02610150 TSNO





000
SAUS43 KILX 011755
MTRPIA
METAR KPIA 011754Z 15007KT 10SM CLR 25/15 A2991 RMK AO2 SLP124
T02500150 10250 20122 58015





000
SAUS43 KILX 011655
MTRPIA
METAR KPIA 011654Z 15006KT 10SM CLR 23/14 A2993 RMK AO2 SLP134
T02330144





000
SAUS43 KILX 011555
MTRPIA
METAR KPIA 011554Z 14008KT 10SM CLR 21/13 A2995 RMK AO2 SLP138
T02060133





000
SAUS43 KILX 011455
MTRPIA
METAR KPIA 011454Z 12005KT 10SM CLR 18/12 A2995 RMK AO2 SLP140
T01780117 50000





000
SAUS43 KILX 011355
MTRPIA
METAR KPIA 011354Z 14008KT 10SM CLR 15/10 A2997 RMK AO2 SLP146
T01500100





000
SAUS43 KILX 011255
MTRPIA
METAR KPIA 011254Z 10005KT 10SM SCT080 13/09 A2995 RMK AO2 SLP142
T01330089





000
SAUS43 KILX 011155
MTRPIA
METAR KPIA 011154Z 11004KT 10SM SCT080 12/08 A2995 RMK AO2 SLP141
T01220083 10128 20117 58001





000
SAUS43 KILX 011055
MTRPIA
METAR KPIA 011054Z 09006KT 10SM FEW080 12/08 A2995 RMK AO2 SLP141
T01170078





000
SAUS43 KILX 010955
MTRPIA
METAR KPIA 010954Z 09006KT 10SM BKN075 12/08 A2996 RMK AO2 SLP142
T01220078





000
SAUS43 KILX 010855
MTRPIA
METAR KPIA 010854Z 09007KT 10SM FEW070 12/08 A2995 RMK AO2 SLP140
T01220078 58005





000
SAUS43 KILX 010755
MTRPIA
METAR KPIA 010754Z 10009KT 10SM CLR 12/08 A2995 RMK AO2 SLP141
T01220078





000
SAUS43 KILX 010655
MTRPIA
METAR KPIA 010654Z 09008KT 10SM CLR 12/08 A2997 RMK AO2 SLP149
T01220078





000
SAUS43 KILX 010555
MTRPIA
METAR KPIA 010554Z AUTO 09011KT 10SM CLR 13/08 A2997 RMK AO2 SLP146
T01280083 10183 20128 402170128 56003 TSNO





000
SAUS43 KILX 010455
MTRPIA
METAR KPIA 010454Z 09013KT 10SM CLR 13/08 A2997 RMK AO2 SLP147
T01330083





000
SAUS43 KILX 010355
MTRPIA
METAR KPIA 010354Z 08014KT 10SM CLR 14/09 A2997 RMK AO2 SLP147
T01390089





000
SAUS43 KILX 010255
MTRPIA
METAR KPIA 010254Z 08011KT 10SM CLR 15/09 A2998 RMK AO2 SLP150
T01500089 53008





000
SAUS43 KILX 010155
MTRPIA
METAR KPIA 010154Z 08012KT 10SM CLR 16/09 A2996 RMK AO2 SLP146
T01610089





000
SAUS43 KILX 010056
MTRPIA
METAR KPIA 010054Z 07011KT 10SM CLR 17/09 A2996 RMK AO2 SLP143
T01720094





000
SAUS43 KILX 302355
MTRPIA
METAR KPIA 302354Z 07005KT 10SM CLR 18/11 A2995 RMK AO2 SLP140
T01830111 10217 20183 53001





000
SAUS43 KILX 302256
MTRPIA
METAR KPIA 302254Z 05007KT 10SM CLR 20/12 A2994 RMK AO2 SLP137
T02000117





000
SAUS43 KILX 302155
MTRPIA
METAR KPIA 302154Z 05009KT 10SM CLR 21/12 A2994 RMK AO2 SLP136
T02110122





000
SAUS43 KILX 302055
MTRPIA
METAR KPIA 302054Z 04006KT 10SM CLR 21/12 A2995 RMK AO2 SLP138
T02110117 56020





000
SAUS43 KILX 302054
MTRCMI
METAR KCMI 302053Z 01008KT 10SM CLR 22/13 A2995 RMK AO2 SLP138
T02220133 56014





000
SAUS43 KILX 301955
MTRPIA
METAR KPIA 301954Z 06005KT 10SM CLR 21/12 A2996 RMK AO2 SLP144
T02060117





000
SAUS43 KILX 301855
MTRPIA
METAR KPIA 301854Z VRB06KT 10SM CLR 20/12 A2998 RMK AO2 SLP150
T02000117





000
SAUS43 KILX 301755
MTRPIA
METAR KPIA 301754Z 09006KT 10SM CLR 19/11 A3001 RMK AO2 SLP158
T01890111 10194 20144 58007





000
SAUS43 KILX 301716
MTRPIA
SPECI KPIA 301715Z 05010KT 10SM SCT017 18/11 A3001 RMK AO2 T01830111





000
SAUS43 KILX 301656
MTRPIA
METAR KPIA 301654Z 06008KT 10SM OVC016 17/11 A3002 RMK AO2 SLP165
T01720106





000
SAUS43 KILX 301629
MTRPIA
SPECI KPIA 301628Z 05007KT 10SM OVC015 16/11 A3003 RMK AO2 T01610106





000
SAUS43 KILX 301555
MTRPIA
METAR KPIA 301554Z 06010KT 10SM OVC013 16/11 A3002 RMK AO2 SLP164
T01560106





000
SAUS43 KILX 301455
MTRPIA
METAR KPIA 301454Z 06009KT 9SM OVC010 15/11 A3003 RMK AO2 SLP166
T01500106 50005





000
SAUS43 KILX 301355
MTRPIA
METAR KPIA 301354Z 05009KT 9SM OVC008 14/11 A3003 RMK AO2 SLP167
T01440111





000
SAUS43 KILX 301255
MTRPIA
METAR KPIA 301254Z 05012KT 9SM OVC009 15/11 A3002 RMK AO2 SLP163
T01500111





000
SAUS43 KILX 301155
MTRPIA
METAR KPIA 301154Z 08008KT 10SM OVC010 15/12 A3001 RMK AO2 SLP160
T01500117 10183 20150 53005





000
SAUS43 KILX 301055
MTRPIA
METAR KPIA 301054Z 05011KT 8SM OVC008 16/12 A3000 RMK AO2 SLP154
T01560122





000
SAUS43 KILX 300955
MTRPIA
METAR KPIA 300954Z 07010KT 8SM OVC008 16/12 A3000 RMK AO2 SLP155
T01560122





000
SAUS43 KILX 300855
MTRPIA
METAR KPIA 300854Z 05009KT 5SM HZ OVC006 16/13 A3000 RMK AO2 SLP154
T01610128 53008





000
SAUS43 KILX 300756
MTRPIA
METAR KPIA 300754Z 05013KT 4SM HZ OVC005 16/13 A2999 RMK AO2 SLP150
T01610133





000
SAUS43 KILX 300655
MTRPIA
METAR KPIA 300654Z 06009KT 4SM HZ BKN006 17/14 A2997 RMK AO2 SLP146
T01670139





000
SAUS43 KILX 300654
MTRPIA
SPECI KPIA 300652Z 06008KT 4SM HZ BKN007 17/14 A2997 RMK AO2





000
SAUS43 KILX 300641
MTRPIA
SPECI KPIA 300640Z 06008KT 5SM HZ SCT007 17/14 A2996 RMK AO2
T01670139





000
SAUS43 KILX 300555
MTRPIA
METAR KPIA 300554Z 05011KT 7SM CLR 18/15 A2995 RMK AO2 SLP138
T01830150 10239 20172 403060144 53001





000
SAUS43 KILX 300455
MTRPIA
METAR KPIA 300454Z 00000KT 9SM CLR 18/15 A2994 RMK AO2 SLP134
T01830150





000
SAUS43 KILX 300355
MTRPIA
METAR KPIA 300354Z 00000KT 8SM CLR 18/15 A2995 RMK AO2 SLP137
T01830150





000
SAUS43 KILX 300256
MTRPIA
METAR KPIA 300254Z 00000KT 10SM CLR 20/15 A2995 RMK AO2 SLP138
T02000150 50001





000
SAUS43 KILX 300155
MTRPIA
METAR KPIA 300154Z 00000KT 10SM CLR 20/16 A2995 RMK AO2 SLP140
T02000161





000
SAUS43 KILX 300055
MTRPIA
METAR KPIA 300054Z 00000KT 10SM CLR 22/16 A2995 RMK AO2 SLP138
T02170156





000
SAUS43 KILX 292355
MTRPIA
METAR KPIA 292354Z 00000KT 10SM CLR 24/15 A2995 RMK AO2 SLP138
T02390150 10306 20239 56005





000
SAUS43 KILX 292255
MTRPIA
METAR KPIA 292254Z 00000KT 10SM CLR 28/14 A2995 RMK AO2 SLP137
T02830144





000
SAUS43 KILX 292155
MTRPIA
METAR KPIA 292154Z 30004KT 10SM CLR 28/14 A2995 RMK AO2 SLP138
T02780139





000
SAUS43 KILX 292107
MTRPIA
SPECI KPIA 292105Z VRB03KT 10SM BKN065 30/14 A2996 RMK AO2 T03000144





000
SAUS43 KILX 292055
MTRPIA
METAR KPIA 292054Z AUTO 10SM BKN065 29/14 A2996 RMK AO2 SLP142
T02940139 56021 TSNO





000
SAUS43 KILX 291955
MTRPIA
METAR KPIA 291954Z 27003KT 10SM SCT065 30/13 A2998 RMK AO2 SLP148
T03000133





000
SAUS43 KILX 291855
MTRPIA
METAR KPIA 291854Z VRB04KT 10SM FEW065 29/13 A3000 RMK AO2 SLP156
T02890133





000
SAUS43 KILX 291755
MTRPIA
METAR KPIA 291754Z 19003KT 10SM SCT060 29/14 A3003 RMK AO2 SLP163
T02940139 10294 20144 58013





000
SAUS43 KILX 291655
MTRPIA
METAR KPIA 291654Z 25004KT 10SM CLR 28/14 A3004 RMK AO2 SLP170
T02830139





000
SAUS43 KILX 291555
MTRPIA
METAR KPIA 291554Z 23004KT 10SM CLR 26/14 A3006 RMK AO2 SLP175
T02560139





000
SAUS43 KILX 291455
MTRPIA
METAR KPIA 291454Z 00000KT 10SM CLR 23/14 A3007 RMK AO2 SLP177
T02330144 50003





000
SAUS43 KILX 291355
MTRPIA
METAR KPIA 291354Z 00000KT 10SM CLR 21/14 A3007 RMK AO2 SLP181
T02060144





000
SAUS43 KILX 291255
MTRPIA
METAR KPIA 291254Z 00000KT 7SM CLR 17/14 A3007 RMK AO2 SLP179
T01720139





    US Dept of Commerce
    National Oceanic and Atmospheric Administration
    National Weather Service
    1325 East West Highway
    Silver Spring, MD 20910
    Page Author: NWS Internet Services Team
Disclaimer
Information Quality
Credits
Glossary
Privacy Policy
Freedom of Information Act (FOIA)
About Us
Career Opportunities